Latest Weather Observations for Coober Pedy Airport

IDS60801

Issued at 7:41 am CDT Tuesday 6 December 2022 (issued every 10 minutes, with the page automatically refreshed every 10 minutes)

About weather observations | Map of weather stations | Latest weather observations for SA | Other Formats
Station Details ID: 016090 Name: COOBER PEDY AIRPORT Lat: -29.03 Lon: 134.72 Height: 225.0 m
Data from the previous 72 hours. | See also: Recent months at Coober Pedy Airport
Date/Time
CDT
Temp
°C
App
Temp
°C
Dew
Point
°C
Rel
Hum
%
Delta-T
°C
Wind Press
QNH
hPa
Press
MSL
hPa
Rain since
9am
mm
Dir  Spd
km/h
Gust
km/h
Spd
kts
Gust
kts
06/07:30am 22.4 16.9 7.4 38 7.9 ENE 26 32 14 17 1007.4 1006.1 0.0
06/07:00am 21.2 16.5 7.8 42 7.0 ENE 22 26 12 14 1007.6 1006.3 0.0
06/06:30am 21.1 17.0 8.0 43 6.9 ENE 19 24 10 13 1007.5 1006.2 0.0
06/06:00am 21.4 17.7 8.0 42 7.1 E 17 20 9 11 1007.3 1006.0 0.0
06/05:30am 21.9 17.9 8.1 41 7.3 ENE 19 22 10 12 1007.4 1006.1 0.0
06/05:00am 22.3 18.1 8.1 40 7.5 E 20 26 11 14 1007.5 1006.2 0.0
06/04:30am 22.5 18.4 8.6 41 7.5 E 20 24 11 13 1007.7 1006.4 0.0
06/04:00am 23.2 18.8 8.9 40 7.7 E 22 28 12 15 1008.1 1006.7 0.0
06/03:30am 23.6 19.7 9.6 41 7.7 E 20 24 11 13 1008.4 1007.0 0.0
06/03:00am 23.9 20.0 9.5 40 7.9 E 20 24 11 13 1008.6 1007.2 0.0
06/02:30am 24.1 20.7 9.3 39 8.1 E 17 22 9 12 1008.8 1007.4 0.0
06/02:00am 24.6 20.9 9.3 38 8.4 E 19 24 10 13 1009.0 1007.6 0.0
06/01:30am 25.4 21.1 9.3 36 8.9 E 22 28 12 15 1009.2 1007.8 0.0
06/01:00am 25.9 21.1 8.8 34 9.4 ESE 24 30 13 16 1009.4 1008.0 0.0
06/12:30am 26.5 21.3 8.9 33 9.7 ESE 26 35 14 19 1009.5 1008.1 0.0
06/12:00am 26.9 21.4 9.3 33 9.8 ESE 28 35 15 19 1009.8 1008.4 0.0
 
Date/Time
CDT
Temp
°C
App
Temp
°C
Dew
Point
°C
Rel
Hum
%
Delta-T
°C
Wind Press
QNH
hPa
Press
MSL
hPa
Rain since
9am
mm
Dir  Spd
km/h
Gust
km/h
Spd
kts
Gust
kts
05/11:30pm 27.5 22.0 9.3 32 10.2 ESE 28 37 15 20 1009.9 1008.5 0.0
05/11:00pm 28.0 23.2 8.8 30 10.6 ESE 24 35 13 19 1009.8 1008.4 0.0
05/10:30pm 28.7 23.8 8.4 28 11.2 E 24 37 13 20 1009.6 1008.2 0.0
05/10:00pm 29.3 24.0 8.4 27 11.6 ESE 26 35 14 19 1009.5 1008.1 0.0
05/09:30pm 29.7 24.7 8.2 26 11.9 ESE 24 32 13 17 1009.4 1008.0 0.0
05/09:00pm 30.4 24.7 8.2 25 12.3 ESE 28 35 15 19 1009.3 1007.9 0.0
05/08:30pm 30.9 24.7 8.0 24 12.7 ESE 30 39 16 21 1009.2 1007.8 0.0
05/08:00pm 31.6 25.1 8.0 23 13.1 ESE 32 43 17 23 1009.0 1007.6 0.0
05/07:30pm 32.6 26.5 8.1 22 13.8 SE 30 35 16 19 1008.9 1007.5 0.0
05/07:00pm 33.0 26.4 8.5 22 13.8 SE 33 43 18 23 1008.8 1007.4 0.0
05/06:30pm 33.7 27.2 9.0 22 14.1 SE 33 43 18 23 1008.7 1007.3 0.0
05/06:00pm 34.9 29.1 9.3 21 14.8 SE 30 41 16 22 1008.7 1007.3 0.0
05/05:30pm 35.3 31.7 4.8 15 16.5 SE 13 33 7 18 1008.9 1007.5 0.0
05/05:00pm 35.3 32.2 3.8 14 16.7 ESE 9 15 5 8 1008.9 1007.5 0.0
05/04:30pm 35.4 31.2 3.9 14 16.8 SSE 15 19 8 10 1009.6 1008.2 0.0
05/04:00pm 35.3 31.1 3.8 14 16.7 S 15 20 8 11 1009.8 1008.4 0.0
05/03:30pm 35.5 31.7 3.9 14 16.8 SSE 13 24 7 13 1010.2 1008.8 0.0
05/03:00pm 36.2 32.7 3.4 13 17.4 S 11 20 6 11 1010.4 1009.0 0.0
05/02:30pm 36.0 32.8 3.3 13 17.3 SSW 9 22 5 12 1010.8 1009.4 0.0
05/02:00pm 36.3 30.9 2.4 12 17.7 SSW 20 28 11 15 1011.3 1010.0 0.0
05/01:30pm 36.0 32.1 3.3 13 17.3 SW 13 24 7 13 1011.8 1010.5 0.0
05/01:00pm 35.8 33.0 3.1 13 17.2 SSE 7 13 4 7 1012.2 1010.9 0.0
05/12:30pm 35.1 32.0 3.6 14 16.7 NE 9 15 5 8 1012.5 1011.2 0.0
05/12:00pm 34.8 30.5 3.4 14 16.5 ENE 15 20 8 11 1012.8 1011.4 0.0
05/11:30am 33.2 29.2 4.9 17 15.1 E 15 22 8 12 1013.0 1011.6 0.0
05/11:00am 32.3 28.7 5.0 18 14.5 E 13 19 7 10 1013.1 1011.7 0.0
05/10:30am 31.3 27.1 5.7 20 13.7 ESE 17 22 9 12 1013.0 1011.6 0.0
05/10:00am 29.8 25.2 5.8 22 12.8 E 19 24 10 13 1012.9 1011.5 0.0
05/09:30am 28.5 24.7 7.7 27 11.3 ENE 17 22 9 12 1013.0 1011.6 0.0
05/09:00am 26.6 22.4 8.1 31 10.1 E 20 26 11 14 1013.0 1011.6 0.0
05/08:30am 25.6 21.6 9.0 35 9.1 E 20 26 11 14 1013.1 1011.7 0.0
05/08:00am 25.2 22.3 9.5 37 8.7 ESE 15 20 8 11 1012.9 1011.5 0.0
05/07:30am 23.4 19.8 8.3 38 8.1 SE 17 20 9 11 1012.5 1011.2 0.0
05/07:00am 22.9 18.7 7.4 37 8.2 SE 19 24 10 13 1011.9 1010.6 0.0
05/06:30am 23.0 18.6 6.7 35 8.5 SE 19 22 10 12 1011.9 1010.6 0.0
05/06:00am 23.6 19.0 6.4 33 8.9 SE 20 28 11 15 1011.7 1010.4 0.0
05/05:30am 24.1 19.4 5.9 31 9.4 SE 20 24 11 13 1011.5 1010.2 0.0
05/05:00am 24.6 20.1 5.9 30 9.7 SE 19 24 10 13 1011.1 1009.7 0.0
05/04:30am 25.3 20.1 5.5 28 10.2 SE 22 28 12 15 1011.0 1009.6 0.0
05/04:00am 25.7 20.1 5.3 27 10.5 SE 24 33 13 18 1010.8 1009.4 0.0
05/03:30am 26.1 19.3 5.1 26 10.8 ESE 30 39 16 21 1010.6 1009.2 0.0
05/03:00am 26.3 19.4 4.7 25 11.1 ESE 30 43 16 23 1010.5 1009.1 0.0
05/02:30am 26.5 19.8 5.5 26 10.9 ESE 30 37 16 20 1011.6 1010.3 0.0
05/02:00am 26.8 19.6 5.1 25 11.2 SE 32 39 17 21 1012.1 1010.8 0.0
05/01:30am 27.1 19.0 5.4 25 11.3 SE 37 52 20 28 1012.2 1010.9 0.0
05/01:27am 27.1 19.8 5.4 25 11.3 SE 33 52 18 28 1012.2 1010.9 0.0
05/01:00am 27.1 19.3 4.8 24 11.5 SE 35 48 19 26 1012.5 1011.2 0.0
05/12:36am 27.4 18.5 5.1 24 11.6 SSE 41 59 22 32 1012.9 1011.5 0.0
05/12:30am 27.5 18.2 5.1 24 11.6 SSE 43 57 23 31 1012.8 1011.4 0.0
05/12:02am 28.1 18.9 5.6 24 11.8 SSE 43 63 23 34 1012.6 1011.3 0.0
05/12:00am 28.2 19.4 5.7 24 11.8 SSE 41 52 22 28 1012.8 1011.4 0.0
 
Date/Time
CDT
Temp
°C
App
Temp
°C
Dew
Point
°C
Rel
Hum
%
Delta-T
°C
Wind Press
QNH
hPa
Press
MSL
hPa
Rain since
9am
mm
Dir  Spd
km/h
Gust
km/h
Spd
kts
Gust
kts
04/11:30pm 29.6 19.5 3.6 19 13.3 SSE 46 63 25 34 1012.3 1011.0 0.0
04/11:05pm 31.9 24.0 1.1 14 15.3 S 32 50 17 27 1011.9 1010.6 0.0
04/11:00pm 31.8 23.9 1.0 14 15.3 SSE 32 41 17 22 1012.0 1010.7 0.0
04/10:30pm 32.5 24.5 0.6 13 15.8 S 32 43 17 23 1011.4 1010.1 0.0
04/10:19pm 32.3 26.9 1.4 14 15.5 SE 19 44 10 24 1011.1 1009.7 0.0
04/10:00pm 31.6 27.7 0.9 14 15.2 ESE 11 11 6 6 1010.6 1009.2 0.0
04/09:30pm 32.9 29.0 0.9 13 16.0 SE 11 13 6 7 1010.5 1009.1 0.0
04/09:00pm 34.1 30.1 0.7 12 16.8 SE 11 13 6 7 1010.3 1008.9 0.0
04/08:30pm 35.6 30.9 0.6 11 17.7 SSE 15 19 8 10 1010.1 1008.7 0.0
04/08:00pm 37.0 31.7 1.7 11 18.3 SSE 19 24 10 13 1009.7 1008.3 0.0
04/07:30pm 37.5 31.8 0.7 10 18.9 SE 20 32 11 17 1009.4 1008.0 0.0
04/07:00pm 38.0 33.0 1.1 10 19.1 SE 17 28 9 15 1009.1 1007.7 0.0
04/06:30pm 38.5 35.0 1.5 10 19.3 S 9 20 5 11 1008.8 1007.4 0.0
04/06:00pm 38.5 32.9 1.5 10 19.3 S 20 30 11 16 1008.8 1007.4 0.0
04/05:30pm 38.5 35.0 1.5 10 19.3 E 9 17 5 9 1008.8 1007.4 0.0
04/05:00pm 37.9 34.4 1.0 10 19.0 S 9 17 5 9 1008.9 1007.5 0.0
04/04:30pm 38.6 34.0 1.6 10 19.4 SE 15 26 8 14 1009.2 1007.8 0.0
04/04:00pm 38.7 35.6 1.6 10 19.4 SSE 7 24 4 13 1009.4 1008.0 0.0
04/03:30pm 38.0 33.3 1.1 10 19.1 SE 15 30 8 16 1009.7 1008.3 0.0
04/03:00pm 37.9 34.0 1.0 10 19.1 SSW 11 22 6 12 1010.1 1008.7 0.0
04/02:30pm 37.3 33.5 1.9 11 18.5 WSW 11 17 6 9 1010.4 1009.0 0.0
04/02:00pm 37.2 33.0 1.8 11 18.4 ENE 13 24 7 13 1011.0 1009.6 0.0
04/01:30pm 37.5 34.1 2.1 11 18.5 N 9 20 5 11 1011.1 1009.7 0.0
04/01:00pm 36.5 33.4 1.3 11 18.1 SE 7 24 4 13 1011.5 1010.2 0.0
04/12:30pm 36.2 32.1 -0.2 10 18.2 SE 11 20 6 11 1011.9 1010.6 0.0
04/12:00pm 36.0 31.9 2.1 12 17.6 ENE 13 24 7 13 1012.1 1010.8 0.0
04/11:30am 34.8 29.9 2.3 13 16.8 NE 17 24 9 13 1012.6 1011.3 0.0
04/11:00am 34.4 29.1 2.0 13 16.6 N 19 26 10 14 1012.8 1011.4 0.0
04/10:30am 34.1 29.0 2.8 14 16.2 NNE 19 26 10 14 1012.9 1011.5 0.0
04/10:00am 33.2 27.9 3.1 15 15.6 NE 20 26 11 14 1012.9 1011.5 0.0
04/09:30am 32.0 26.7 2.1 15 15.2 NE 19 26 10 14 1012.9 1011.5 0.0
04/09:00am 31.3 26.9 2.5 16 14.6 NNE 15 20 8 11 1012.8 1011.4 0.0
04/08:30am 29.4 25.4 2.6 18 13.5 NNE 13 17 7 9 1012.3 1011.0 0.0
04/08:00am 28.0 24.4 3.0 20 12.5 NNE 11 13 6 7 1012.1 1010.8 0.0
04/07:30am 25.7 21.7 3.0 23 11.2 N 13 13 7 7 1011.7 1010.4 0.0
04/07:00am 23.3 18.8 2.2 25 10.1 N 15 15 8 8 1011.2 1009.8 0.0
04/06:30am 22.3 17.8 1.9 26 9.7 N 15 17 8 9 1010.8 1009.4 0.0
04/06:00am 22.5 17.5 1.5 25 9.9 NNE 17 17 9 9 1010.3 1008.9 0.0
04/05:30am 22.7 17.8 1.7 25 9.9 NNE 17 17 9 9 1010.0 1008.6 0.0
04/05:00am 23.3 18.0 1.6 24 10.3 NNE 19 20 10 11 1009.9 1008.5 0.0
04/04:30am 23.0 18.4 1.4 24 10.2 NNE 15 17 8 9 1009.9 1008.5 0.0
04/04:00am 24.1 19.2 1.7 23 10.7 NNE 17 20 9 11 1009.9 1008.5 0.0
04/03:30am 24.1 19.2 1.7 23 10.7 NNE 17 20 9 11 1010.0 1008.6 0.0
04/03:00am 24.8 19.9 1.7 22 11.1 NNE 17 19 9 10 1010.3 1008.9 0.0
04/02:30am 25.6 20.7 1.7 21 11.5 NE 17 20 9 11 1010.4 1009.0 0.0
04/02:00am 25.6 20.2 1.0 20 11.7 NE 19 20 10 11 1010.7 1009.3 0.0
04/01:30am 26.1 20.7 1.4 20 11.9 NE 19 24 10 13 1011.0 1009.6 0.0
04/01:00am 26.6 21.2 1.1 19 12.2 NE 19 22 10 12 1011.4 1010.1 0.0
04/12:30am 26.4 20.8 0.2 18 12.4 NE 19 20 10 11 1011.6 1010.3 0.0
04/12:00am 27.8 22.1 0.5 17 13.1 NE 20 24 11 13 1011.7 1010.4 0.0
 
Date/Time
CDT
Temp
°C
App
Temp
°C
Dew
Point
°C
Rel
Hum
%
Delta-T
°C
Wind Press
QNH
hPa
Press
MSL
hPa
Rain since
9am
mm
Dir  Spd
km/h
Gust
km/h
Spd
kts
Gust
kts
03/11:30pm 28.6 22.9 0.3 16 13.6 NE 20 24 11 13 1011.7 1010.4 0.0
03/11:00pm 29.6 23.1 0.2 15 14.2 ENE 24 28 13 15 1011.6 1010.3 0.0
03/10:30pm 28.5 23.6 -0.6 15 13.8 E 15 17 8 9 1011.2 1009.8 0.0
03/10:00pm 29.6 24.8 0.2 15 14.2 ENE 15 17 8 9 1010.9 1009.5 0.0
03/09:30pm 30.4 25.6 -0.1 14 14.7 ENE 15 19 8 10 1010.6 1009.2 0.0
03/09:00pm 31.5 26.6 -0.2 13 15.4 ENE 15 17 8 9 1010.3 1008.9 0.0
03/08:30pm 32.7 28.2 -0.4 12 16.2 E 13 17 7 9 1010.0 1008.6 0.0
03/08:00pm 34.3 29.8 -0.4 11 17.1 E 13 17 7 9 1009.7 1008.3 0.0
03/07:30pm 35.1 30.9 -1.1 10 17.8 SE 11 17 6 9 1009.3 1007.9 0.0
03/07:00pm 35.5 31.9 -2.2 9 18.2 SE 7 11 4 6 1009.1 1007.7 0.0
03/06:30pm 35.9 31.0 -3.5 8 18.7 SSE 13 20 7 11 1009.0 1007.6 0.0
03/06:00pm 35.6 31.4 -3.7 8 18.6 SE 9 24 5 13 1009.0 1007.6 0.0
03/05:30pm 35.8 31.6 -3.5 8 18.7 ESE 9 20 5 11 1008.9 1007.5 0.0
03/05:00pm 36.0 29.8 -3.4 8 18.7 SE 20 33 11 18 1009.0 1007.6 0.0
03/04:30pm 35.9 30.6 -3.5 8 18.7 NE 15 26 8 14 1009.2 1007.8 0.0
03/04:00pm 35.5 30.9 -3.8 8 18.5 E 11 26 6 14 1009.5 1008.1 0.0
03/03:30pm 35.2 30.8 -2.4 9 18.1 NNE 11 19 6 10 1009.8 1008.4 0.0
03/03:00pm 35.5 30.9 -3.8 8 18.5 S 11 24 6 13 1010.0 1008.6 0.0
03/02:30pm 35.2 28.9 -4.0 8 18.4 ESE 20 32 11 17 1010.5 1009.1 0.0
03/02:00pm 34.8 30.6 -4.3 8 18.2 E 9 20 5 11 1010.7 1009.3 0.0
03/01:30pm 34.4 29.5 -3.0 9 17.7 SE 13 20 7 11 1011.2 1009.8 0.0
03/01:00pm 33.3 28.5 -2.4 10 16.9 S 13 24 7 13 1011.5 1010.2 0.0
03/12:30pm 34.2 29.5 -1.7 10 17.3 ESE 13 22 7 12 1011.9 1010.6 0.0
03/12:00pm 33.3 29.1 -1.1 11 16.7 E 11 24 6 13 1012.3 1011.0 0.0
03/11:30am 32.4 26.9 -1.8 11 16.3 NE 17 28 9 15 1012.5 1011.2 0.0
03/11:00am 32.1 26.8 -0.9 12 15.9 ENE 17 28 9 15 1012.6 1011.3 0.0
03/10:30am 32.4 26.7 0.5 13 15.8 NE 20 28 11 15 1012.9 1011.5 0.0
03/10:00am 30.5 24.2 -1.0 13 15.0 ENE 22 28 12 15 1013.0 1011.6 0.0
03/09:30am 29.3 23.5 0.0 15 14.1 ENE 20 28 11 15 1013.0 1011.6 0.0
03/09:00am 28.2 22.7 0.9 17 13.2 ENE 19 24 10 13 1012.9 1011.5 0.0
03/08:30am 26.9 21.5 1.3 19 12.4 ENE 19 24 10 13 1012.5 1011.2 0.0
03/08:00am 25.3 20.7 1.4 21 11.4 ENE 15 19 8 10 1012.2 1010.9 0.0

Other formats

Comma delimited format used in spreadsheet applications
http://www.bom.gov.au/fwo/IDS60801/IDS60801.95458.axf

JavaScript Object Notation format (JSON) in row-major order
http://www.bom.gov.au/fwo/IDS60801/IDS60801.95458.json

Data quality

Most of these data are generated automatically and are frequently updated. Quality checks on data are not normally performed. It is possible for incorrect values to appear. Refer to information at About Latest Weather Observations and please check the disclaimer before using these data.